sensor_id;sensor_type;location;lat;lon;timestamp;P1;P2;P0
35951;PMS5003;22035;51.406;16.194;2023-02-01T00:00:51;7;5;
35951;PMS5003;22035;51.406;16.194;2023-02-01T00:03:17;7;3;
35951;PMS5003;22035;51.406;16.194;2023-02-01T00:05:42;5;3;
35951;PMS5003;22035;51.406;16.194;2023-02-01T00:08:08;6;4;
35951;PMS5003;22035;51.406;16.194;2023-02-01T00:10:34;7;4;
35951;PMS5003;22035;51.406;16.194;2023-02-01T00:13:00;6;3;
35951;PMS5003;22035;51.406;16.194;2023-02-01T00:15:25;5;2;
35951;PMS5003;22035;51.406;16.194;2023-02-01T00:17:52;8;4;
35951;PMS5003;22035;51.406;16.194;2023-02-01T00:20:18;7;3;
35951;PMS5003;22035;51.406;16.194;2023-02-01T00:22:44;4;3;
35951;PMS5003;22035;51.406;16.194;2023-02-01T00:25:10;8;4;
35951;PMS5003;22035;51.406;16.194;2023-02-01T00:27:35;10;4;
35951;PMS5003;22035;51.406;16.194;2023-02-01T00:30:01;6;2;
35951;PMS5003;22035;51.406;16.194;2023-02-01T00:32:27;3;3;
35951;PMS5003;22035;51.406;16.194;2023-02-01T00:34:53;6;2;
35951;PMS5003;22035;51.406;16.194;2023-02-01T00:37:18;5;3;
35951;PMS5003;22035;51.406;16.194;2023-02-01T00:39:44;4;1;
35951;PMS5003;22035;51.406;16.194;2023-02-01T00:42:10;3;1;
35951;PMS5003;22035;51.406;16.194;2023-02-01T00:44:35;6;5;
35951;PMS5003;22035;51.406;16.194;2023-02-01T00:47:01;4;2;
35951;PMS5003;22035;51.406;16.194;2023-02-01T00:49:27;3;1;
35951;PMS5003;22035;51.406;16.194;2023-02-01T00:51:53;4;3;
35951;PMS5003;22035;51.406;16.194;2023-02-01T00:54:19;1;1;
35951;PMS5003;22035;51.406;16.194;2023-02-01T00:56:45;4;4;
35951;PMS5003;22035;51.406;16.194;2023-02-01T00:59:11;2;1;
35951;PMS5003;22035;51.406;16.194;2023-02-01T01:01:37;4;3;
35951;PMS5003;22035;51.406;16.194;2023-02-01T01:04:03;2;2;
35951;PMS5003;22035;51.406;16.194;2023-02-01T01:06:30;2;1;
35951;PMS5003;22035;51.406;16.194;2023-02-01T01:08:58;1;1;
35951;PMS5003;22035;51.406;16.194;2023-02-01T01:11:26;1;1;
35951;PMS5003;22035;51.406;16.194;2023-02-01T01:13:54;6;3;
35951;PMS5003;22035;51.406;16.194;2023-02-01T01:16:22;4;3;
35951;PMS5003;22035;51.406;16.194;2023-02-01T01:18:49;3;2;
35951;PMS5003;22035;51.406;16.194;2023-02-01T01:21:15;4;2;
35951;PMS5003;22035;51.406;16.194;2023-02-01T01:23:42;1;1;
35951;PMS5003;22035;51.406;16.194;2023-02-01T01:26:10;3;2;
35951;PMS5003;22035;51.406;16.194;2023-02-01T01:28:39;1;1;
35951;PMS5003;22035;51.406;16.194;2023-02-01T01:31:07;2;2;
35951;PMS5003;22035;51.406;16.194;2023-02-01T01:33:33;4;1;
35951;PMS5003;22035;51.406;16.194;2023-02-01T01:35:59;4;0;
35951;PMS5003;22035;51.406;16.194;2023-02-01T01:38:25;0;0;
35951;PMS5003;22035;51.406;16.194;2023-02-01T01:40:50;3;2;
35951;PMS5003;22035;51.406;16.194;2023-02-01T01:43:17;2;2;
35951;PMS5003;22035;51.406;16.194;2023-02-01T01:45:44;1;1;
35951;PMS5003;22035;51.406;16.194;2023-02-01T01:48:12;6;5;
35951;PMS5003;22035;51.406;16.194;2023-02-01T01:50:42;2;1;
35951;PMS5003;22035;51.406;16.194;2023-02-01T01:53:12;4;3;
35951;PMS5003;22035;51.406;16.194;2023-02-01T01:55:42;2;0;
35951;PMS5003;22035;51.406;16.194;2023-02-01T01:58:13;5;3;
35951;PMS5003;22035;51.406;16.194;2023-02-01T02:00:42;0;0;
35951;PMS5003;22035;51.406;16.194;2023-02-01T02:03:19;2;1;
35951;PMS5003;22035;51.406;16.194;2023-02-01T02:05:49;1;1;
35951;PMS5003;22035;51.406;16.194;2023-02-01T02:08:16;7;3;
35951;PMS5003;22035;51.406;16.194;2023-02-01T02:10:43;6;2;
35951;PMS5003;22035;51.406;16.194;2023-02-01T02:13:09;4;1;
35951;PMS5003;22035;51.406;16.194;2023-02-01T02:15:35;1;1;
35951;PMS5003;22035;51.406;16.194;2023-02-01T02:18:07;5;2;
35951;PMS5003;22035;51.406;16.194;2023-02-01T02:21:02;3;1;
35951;PMS5003;22035;51.406;16.194;2023-02-01T02:23:44;7;2;
35951;PMS5003;22035;51.406;16.194;2023-02-01T02:26:29;0;0;
35951;PMS5003;22035;51.406;16.194;2023-02-01T02:29:09;3;0;
35951;PMS5003;22035;51.406;16.194;2023-02-01T02:31:55;1;1;
35951;PMS5003;22035;51.406;16.194;2023-02-01T02:34:36;3;1;
35951;PMS5003;22035;51.406;16.194;2023-02-01T02:37:08;4;0;
35951;PMS5003;22035;51.406;16.194;2023-02-01T02:39:44;1;1;
35951;PMS5003;22035;51.406;16.194;2023-02-01T02:42:18;3;0;
35951;PMS5003;22035;51.406;16.194;2023-02-01T02:44:54;1;0;
35951;PMS5003;22035;51.406;16.194;2023-02-01T02:47:27;2;2;
35951;PMS5003;22035;51.406;16.194;2023-02-01T02:50:02;1;1;
35951;PMS5003;22035;51.406;16.194;2023-02-01T02:52:34;3;3;
35951;PMS5003;22035;51.406;16.194;2023-02-01T02:55:04;4;2;
35951;PMS5003;22035;51.406;16.194;2023-02-01T02:57:34;1;1;
35951;PMS5003;22035;51.406;16.194;2023-02-01T03:00:03;2;0;
35951;PMS5003;22035;51.406;16.194;2023-02-01T03:02:33;2;0;
35951;PMS5003;22035;51.406;16.194;2023-02-01T03:05:00;2;2;
35951;PMS5003;22035;51.406;16.194;2023-02-01T03:08:01;4;2;
35951;PMS5003;22035;51.406;16.194;2023-02-01T03:10:32;0;0;
35951;PMS5003;22035;51.406;16.194;2023-02-01T03:13:04;0;0;
35951;PMS5003;22035;51.406;16.194;2023-02-01T03:15:35;0;0;
35951;PMS5003;22035;51.406;16.194;2023-02-01T03:18:06;2;1;
35951;PMS5003;22035;51.406;16.194;2023-02-01T03:20:37;1;0;
35951;PMS5003;22035;51.406;16.194;2023-02-01T03:23:05;0;0;
35951;PMS5003;22035;51.406;16.194;2023-02-01T03:25:32;1;1;
35951;PMS5003;22035;51.406;16.194;2023-02-01T03:28:00;2;0;
35951;PMS5003;22035;51.406;16.194;2023-02-01T03:30:29;2;1;
35951;PMS5003;22035;51.406;16.194;2023-02-01T03:33:00;1;0;
35951;PMS5003;22035;51.406;16.194;2023-02-01T03:35:29;1;1;
35951;PMS5003;22035;51.406;16.194;2023-02-01T03:38:01;4;2;
35951;PMS5003;22035;51.406;16.194;2023-02-01T03:40:34;9;6;
35951;PMS5003;22035;51.406;16.194;2023-02-01T03:43:02;8;8;
35951;PMS5003;22035;51.406;16.194;2023-02-01T03:45:33;14;14;
35951;PMS5003;22035;51.406;16.194;2023-02-01T03:48:03;12;12;
35951;PMS5003;22035;51.406;16.194;2023-02-01T03:50:30;14;14;
35951;PMS5003;22035;51.406;16.194;2023-02-01T03:52:59;14;14;
35951;PMS5003;22035;51.406;16.194;2023-02-01T03:55:30;11;11;
35951;PMS5003;22035;51.406;16.194;2023-02-01T03:57:58;14;12;
35951;PMS5003;22035;51.406;16.194;2023-02-01T04:00:29;10;10;
35951;PMS5003;22035;51.406;16.194;2023-02-01T04:02:55;11;11;
35951;PMS5003;22035;51.406;16.194;2023-02-01T04:05:21;15;12;
35951;PMS5003;22035;51.406;16.194;2023-02-01T04:07:48;13;12;
35951;PMS5003;22035;51.406;16.194;2023-02-01T04:10:14;13;13;
35951;PMS5003;22035;51.406;16.194;2023-02-01T04:12:40;15;15;
35951;PMS5003;22035;51.406;16.194;2023-02-01T04:15:06;15;15;
35951;PMS5003;22035;51.406;16.194;2023-02-01T04:17:33;18;16;
35951;PMS5003;22035;51.406;16.194;2023-02-01T04:19:59;11;11;
35951;PMS5003;22035;51.406;16.194;2023-02-01T04:22:24;13;13;
35951;PMS5003;22035;51.406;16.194;2023-02-01T04:24:50;16;16;
35951;PMS5003;22035;51.406;16.194;2023-02-01T04:27:16;19;19;
35951;PMS5003;22035;51.406;16.194;2023-02-01T04:29:42;15;14;
35951;PMS5003;22035;51.406;16.194;2023-02-01T04:32:07;22;19;
35951;PMS5003;22035;51.406;16.194;2023-02-01T04:34:33;22;20;
35951;PMS5003;22035;51.406;16.194;2023-02-01T04:36:59;30;30;
35951;PMS5003;22035;51.406;16.194;2023-02-01T04:39:25;62;61;
35951;PMS5003;22035;51.406;16.194;2023-02-01T04:41:50;78;77;
35951;PMS5003;22035;51.406;16.194;2023-02-01T04:44:17;59;56;
35951;PMS5003;22035;51.406;16.194;2023-02-01T04:46:44;78;75;
35951;PMS5003;22035;51.406;16.194;2023-02-01T04:49:11;46;46;
35951;PMS5003;22035;51.406;16.194;2023-02-01T04:51:38;53;46;
35951;PMS5003;22035;51.406;16.194;2023-02-01T04:54:04;12;11;
35951;PMS5003;22035;51.406;16.194;2023-02-01T04:56:30;36;36;
35951;PMS5003;22035;51.406;16.194;2023-02-01T04:58:56;40;39;
35951;PMS5003;22035;51.406;16.194;2023-02-01T05:01:22;40;38;
35951;PMS5003;22035;51.406;16.194;2023-02-01T05:03:48;11;11;
35951;PMS5003;22035;51.406;16.194;2023-02-01T05:06:14;28;27;
35951;PMS5003;22035;51.406;16.194;2023-02-01T05:08:39;29;24;
35951;PMS5003;22035;51.406;16.194;2023-02-01T05:11:05;36;36;
35951;PMS5003;22035;51.406;16.194;2023-02-01T05:13:31;55;55;
35951;PMS5003;22035;51.406;16.194;2023-02-01T05:15:57;26;23;
35951;PMS5003;22035;51.406;16.194;2023-02-01T05:18:23;18;18;
35951;PMS5003;22035;51.406;16.194;2023-02-01T05:20:48;10;9;
35951;PMS5003;22035;51.406;16.194;2023-02-01T05:23:14;20;20;
35951;PMS5003;22035;51.406;16.194;2023-02-01T05:25:40;21;21;
35951;PMS5003;22035;51.406;16.194;2023-02-01T05:28:05;25;25;
35951;PMS5003;22035;51.406;16.194;2023-02-01T05:30:32;9;9;
35951;PMS5003;22035;51.406;16.194;2023-02-01T05:32:57;20;18;
35951;PMS5003;22035;51.406;16.194;2023-02-01T05:35:23;29;29;
35951;PMS5003;22035;51.406;16.194;2023-02-01T05:37:49;16;13;
35951;PMS5003;22035;51.406;16.194;2023-02-01T05:40:15;7;7;
35951;PMS5003;22035;51.406;16.194;2023-02-01T05:42:40;4;4;
35951;PMS5003;22035;51.406;16.194;2023-02-01T05:45:07;0;0;
35951;PMS5003;22035;51.406;16.194;2023-02-01T05:47:33;0;0;
35951;PMS5003;22035;51.406;16.194;2023-02-01T05:49:59;5;1;
35951;PMS5003;22035;51.406;16.194;2023-02-01T05:52:24;3;1;
35951;PMS5003;22035;51.406;16.194;2023-02-01T05:54:50;2;1;
35951;PMS5003;22035;51.406;16.194;2023-02-01T05:57:16;1;0;
35951;PMS5003;22035;51.406;16.194;2023-02-01T05:59:41;2;1;
35951;PMS5003;22035;51.406;16.194;2023-02-01T06:02:07;1;1;
35951;PMS5003;22035;51.406;16.194;2023-02-01T06:04:33;0;0;
35951;PMS5003;22035;51.406;16.194;2023-02-01T06:06:59;0;0;
35951;PMS5003;22035;51.406;16.194;2023-02-01T06:09:24;0;0;
35951;PMS5003;22035;51.406;16.194;2023-02-01T06:11:50;1;1;
35951;PMS5003;22035;51.406;16.194;2023-02-01T06:14:16;1;1;
35951;PMS5003;22035;51.406;16.194;2023-02-01T06:16:41;2;1;
35951;PMS5003;22035;51.406;16.194;2023-02-01T06:19:07;5;1;
35951;PMS5003;22035;51.406;16.194;2023-02-01T06:21:33;7;2;
35951;PMS5003;22035;51.406;16.194;2023-02-01T06:24:00;6;2;
35951;PMS5003;22035;51.406;16.194;2023-02-01T06:26:26;1;1;
35951;PMS5003;22035;51.406;16.194;2023-02-01T06:28:52;0;0;
35951;PMS5003;22035;51.406;16.194;2023-02-01T06:31:17;4;1;
35951;PMS5003;22035;51.406;16.194;2023-02-01T06:33:43;1;1;
35951;PMS5003;22035;51.406;16.194;2023-02-01T06:36:09;1;1;
35951;PMS5003;22035;51.406;16.194;2023-02-01T06:38:36;1;1;
35951;PMS5003;22035;51.406;16.194;2023-02-01T06:41:02;9;4;
35951;PMS5003;22035;51.406;16.194;2023-02-01T06:43:28;2;1;
35951;PMS5003;22035;51.406;16.194;2023-02-01T06:45:58;1;0;
35951;PMS5003;22035;51.406;16.194;2023-02-01T06:48:25;1;0;
35951;PMS5003;22035;51.406;16.194;2023-02-01T06:50:51;1;1;
35951;PMS5003;22035;51.406;16.194;2023-02-01T06:53:16;1;0;
35951;PMS5003;22035;51.406;16.194;2023-02-01T06:55:50;0;0;
35951;PMS5003;22035;51.406;16.194;2023-02-01T06:58:16;0;0;
35951;PMS5003;22035;51.406;16.194;2023-02-01T07:00:42;1;1;
35951;PMS5003;22035;51.406;16.194;2023-02-01T07:03:08;3;2;
35951;PMS5003;22035;51.406;16.194;2023-02-01T07:05:33;2;1;
35951;PMS5003;22035;51.406;16.194;2023-02-01T07:07:59;0;0;
35951;PMS5003;22035;51.406;16.194;2023-02-01T07:10:25;4;2;
35951;PMS5003;22035;51.406;16.194;2023-02-01T07:12:50;5;1;
35951;PMS5003;22035;51.406;16.194;2023-02-01T07:15:16;0;0;
35951;PMS5003;22035;51.406;16.194;2023-02-01T07:17:42;6;2;
35951;PMS5003;22035;51.406;16.194;2023-02-01T07:20:08;5;0;
35951;PMS5003;22035;51.406;16.194;2023-02-01T07:22:34;0;0;
35951;PMS5003;22035;51.406;16.194;2023-02-01T07:25:00;2;0;
35951;PMS5003;22035;51.406;16.194;2023-02-01T07:27:26;1;0;
35951;PMS5003;22035;51.406;16.194;2023-02-01T07:29:51;1;1;
35951;PMS5003;22035;51.406;16.194;2023-02-01T07:32:17;1;1;
35951;PMS5003;22035;51.406;16.194;2023-02-01T07:34:43;2;0;
35951;PMS5003;22035;51.406;16.194;2023-02-01T07:37:09;2;0;
35951;PMS5003;22035;51.406;16.194;2023-02-01T07:39:34;0;0;
35951;PMS5003;22035;51.406;16.194;2023-02-01T07:42:00;0;0;
35951;PMS5003;22035;51.406;16.194;2023-02-01T07:44:26;1;0;
35951;PMS5003;22035;51.406;16.194;2023-02-01T07:46:51;0;0;
35951;PMS5003;22035;51.406;16.194;2023-02-01T07:49:17;1;1;
35951;PMS5003;22035;51.406;16.194;2023-02-01T07:51:43;1;1;
35951;PMS5003;22035;51.406;16.194;2023-02-01T07:54:09;1;1;
35951;PMS5003;22035;51.406;16.194;2023-02-01T07:56:35;2;1;
35951;PMS5003;22035;51.406;16.194;2023-02-01T07:59:01;1;1;
35951;PMS5003;22035;51.406;16.194;2023-02-01T08:01:27;0;0;
35951;PMS5003;22035;51.406;16.194;2023-02-01T08:03:54;0;0;
35951;PMS5003;22035;51.406;16.194;2023-02-01T08:06:21;0;0;
35951;PMS5003;22035;51.406;16.194;2023-02-01T08:08:50;4;1;
35951;PMS5003;22035;51.406;16.194;2023-02-01T08:11:17;1;0;
35951;PMS5003;22035;51.406;16.194;2023-02-01T08:13:44;3;1;
35951;PMS5003;22035;51.406;16.194;2023-02-01T08:16:10;1;1;
35951;PMS5003;22035;51.406;16.194;2023-02-01T08:18:37;2;0;
35951;PMS5003;22035;51.406;16.194;2023-02-01T08:21:04;1;0;
35951;PMS5003;22035;51.406;16.194;2023-02-01T08:23:30;0;0;
35951;PMS5003;22035;51.406;16.194;2023-02-01T08:26:03;0;0;
35951;PMS5003;22035;51.406;16.194;2023-02-01T08:28:30;0;0;
35951;PMS5003;22035;51.406;16.194;2023-02-01T08:30:56;1;0;
35951;PMS5003;22035;51.406;16.194;2023-02-01T08:33:21;0;0;
35951;PMS5003;22035;51.406;16.194;2023-02-01T08:35:47;0;0;
35951;PMS5003;22035;51.406;16.194;2023-02-01T08:38:13;0;0;
35951;PMS5003;22035;51.406;16.194;2023-02-01T08:40:38;0;0;
35951;PMS5003;22035;51.406;16.194;2023-02-01T08:43:04;1;1;
35951;PMS5003;22035;51.406;16.194;2023-02-01T08:45:30;3;0;
35951;PMS5003;22035;51.406;16.194;2023-02-01T08:47:56;0;0;
35951;PMS5003;22035;51.406;16.194;2023-02-01T08:50:22;1;0;
35951;PMS5003;22035;51.406;16.194;2023-02-01T08:52:49;0;0;
35951;PMS5003;22035;51.406;16.194;2023-02-01T08:55:15;1;1;
35951;PMS5003;22035;51.406;16.194;2023-02-01T08:57:41;0;0;
35951;PMS5003;22035;51.406;16.194;2023-02-01T09:00:08;0;0;
35951;PMS5003;22035;51.406;16.194;2023-02-01T09:02:37;0;0;
35951;PMS5003;22035;51.406;16.194;2023-02-01T09:05:03;2;0;
35951;PMS5003;22035;51.406;16.194;2023-02-01T09:07:30;0;0;
35951;PMS5003;22035;51.406;16.194;2023-02-01T09:09:56;1;1;
35951;PMS5003;22035;51.406;16.194;2023-02-01T09:12:22;1;0;
35951;PMS5003;22035;51.406;16.194;2023-02-01T09:14:48;1;0;
35951;PMS5003;22035;51.406;16.194;2023-02-01T09:17:13;0;0;
35951;PMS5003;22035;51.406;16.194;2023-02-01T09:19:39;1;1;
35951;PMS5003;22035;51.406;16.194;2023-02-01T09:22:05;0;0;
35951;PMS5003;22035;51.406;16.194;2023-02-01T09:24:31;0;0;
35951;PMS5003;22035;51.406;16.194;2023-02-01T09:26:56;1;0;
35951;PMS5003;22035;51.406;16.194;2023-02-01T09:29:22;1;1;
35951;PMS5003;22035;51.406;16.194;2023-02-01T09:31:48;1;1;
35951;PMS5003;22035;51.406;16.194;2023-02-01T09:34:13;0;0;
35951;PMS5003;22035;51.406;16.194;2023-02-01T09:36:39;0;0;
35951;PMS5003;22035;51.406;16.194;2023-02-01T09:39:05;0;0;
35951;PMS5003;22035;51.406;16.194;2023-02-01T09:41:34;0;0;
35951;PMS5003;22035;51.406;16.194;2023-02-01T09:44:10;0;0;
35951;PMS5003;22035;51.406;16.194;2023-02-01T09:46:47;0;0;
35951;PMS5003;22035;51.406;16.194;2023-02-01T09:49:14;0;0;
35951;PMS5003;22035;51.406;16.194;2023-02-01T09:51:44;0;0;
35951;PMS5003;22035;51.406;16.194;2023-02-01T09:54:13;1;0;
35951;PMS5003;22035;51.406;16.194;2023-02-01T09:56:44;0;0;
35951;PMS5003;22035;51.406;16.194;2023-02-01T09:59:17;0;0;
35951;PMS5003;22035;51.406;16.194;2023-02-01T10:01:51;0;0;
35951;PMS5003;22035;51.406;16.194;2023-02-01T10:04:17;0;0;
35951;PMS5003;22035;51.406;16.194;2023-02-01T10:06:48;0;0;
35951;PMS5003;22035;51.406;16.194;2023-02-01T10:09:26;1;0;
35951;PMS5003;22035;51.406;16.194;2023-02-01T10:14:15;0;0;
35951;PMS5003;22035;51.406;16.194;2023-02-01T10:16:55;0;0;
35951;PMS5003;22035;51.406;16.194;2023-02-01T10:19:31;0;0;
35951;PMS5003;22035;51.406;16.194;2023-02-01T10:22:06;0;0;
35951;PMS5003;22035;51.406;16.194;2023-02-01T10:24:36;0;0;
35951;PMS5003;22035;51.406;16.194;2023-02-01T10:27:10;1;0;
35951;PMS5003;22035;51.406;16.194;2023-02-01T10:29:40;0;0;
35951;PMS5003;22035;51.406;16.194;2023-02-01T10:32:10;0;0;
35951;PMS5003;22035;51.406;16.194;2023-02-01T10:34:38;1;1;
35951;PMS5003;22035;51.406;16.194;2023-02-01T10:37:09;0;0;
35951;PMS5003;22035;51.406;16.194;2023-02-01T10:39:41;1;1;
35951;PMS5003;22035;51.406;16.194;2023-02-01T10:42:07;0;0;
35951;PMS5003;22035;51.406;16.194;2023-02-01T10:44:33;0;0;
35951;PMS5003;22035;51.406;16.194;2023-02-01T10:47:04;0;0;
35951;PMS5003;22035;51.406;16.194;2023-02-01T10:49:33;3;0;
35951;PMS5003;22035;51.406;16.194;2023-02-01T10:52:05;0;0;
35951;PMS5003;22035;51.406;16.194;2023-02-01T10:54:38;0;0;
35951;PMS5003;22035;51.406;16.194;2023-02-01T10:57:07;0;0;
35951;PMS5003;22035;51.406;16.194;2023-02-01T10:59:33;0;0;
35951;PMS5003;22035;51.406;16.194;2023-02-01T11:01:59;1;0;
35951;PMS5003;22035;51.406;16.194;2023-02-01T11:04:27;0;0;
35951;PMS5003;22035;51.406;16.194;2023-02-01T11:07:04;1;0;
35951;PMS5003;22035;51.406;16.194;2023-02-01T11:09:31;0;0;
35951;PMS5003;22035;51.406;16.194;2023-02-01T11:11:59;0;0;
35951;PMS5003;22035;51.406;16.194;2023-02-01T11:14:27;0;0;
35951;PMS5003;22035;51.406;16.194;2023-02-01T11:17:00;0;0;
35951;PMS5003;22035;51.406;16.194;2023-02-01T11:19:35;1;1;
35951;PMS5003;22035;51.406;16.194;2023-02-01T11:22:01;2;1;
35951;PMS5003;22035;51.406;16.194;2023-02-01T11:24:29;0;0;
35951;PMS5003;22035;51.406;16.194;2023-02-01T11:26:58;2;0;
35951;PMS5003;22035;51.406;16.194;2023-02-01T11:29:25;2;0;
35951;PMS5003;22035;51.406;16.194;2023-02-01T11:31:57;0;0;
35951;PMS5003;22035;51.406;16.194;2023-02-01T11:34:26;0;0;
35951;PMS5003;22035;51.406;16.194;2023-02-01T11:36:58;1;0;
35951;PMS5003;22035;51.406;16.194;2023-02-01T11:39:30;2;0;
35951;PMS5003;22035;51.406;16.194;2023-02-01T11:42:00;0;0;
35951;PMS5003;22035;51.406;16.194;2023-02-01T11:44:30;0;0;
35951;PMS5003;22035;51.406;16.194;2023-02-01T11:47:16;1;1;
35951;PMS5003;22035;51.406;16.194;2023-02-01T11:49:44;0;0;
35951;PMS5003;22035;51.406;16.194;2023-02-01T11:52:12;0;0;
35951;PMS5003;22035;51.406;16.194;2023-02-01T11:54:51;3;0;
35951;PMS5003;22035;51.406;16.194;2023-02-01T11:57:28;1;0;
35951;PMS5003;22035;51.406;16.194;2023-02-01T12:00:09;1;1;
35951;PMS5003;22035;51.406;16.194;2023-02-01T12:02:55;1;1;
35951;PMS5003;22035;51.406;16.194;2023-02-01T12:05:32;1;1;
35951;PMS5003;22035;51.406;16.194;2023-02-01T12:08:12;0;0;
35951;PMS5003;22035;51.406;16.194;2023-02-01T12:10:49;0;0;
35951;PMS5003;22035;51.406;16.194;2023-02-01T12:13:29;0;0;
35951;PMS5003;22035;51.406;16.194;2023-02-01T12:16:11;1;1;
35951;PMS5003;22035;51.406;16.194;2023-02-01T12:18:53;0;0;
35951;PMS5003;22035;51.406;16.194;2023-02-01T12:21:30;0;0;
35951;PMS5003;22035;51.406;16.194;2023-02-01T12:24:15;0;0;
35951;PMS5003;22035;51.406;16.194;2023-02-01T12:26:54;2;0;
35951;PMS5003;22035;51.406;16.194;2023-02-01T12:29:39;1;1;
35951;PMS5003;22035;51.406;16.194;2023-02-01T12:32:18;0;0;
35951;PMS5003;22035;51.406;16.194;2023-02-01T12:35:00;0;0;
35951;PMS5003;22035;51.406;16.194;2023-02-01T12:37:44;0;0;
35951;PMS5003;22035;51.406;16.194;2023-02-01T12:40:21;0;0;
35951;PMS5003;22035;51.406;16.194;2023-02-01T12:42:56;1;1;
35951;PMS5003;22035;51.406;16.194;2023-02-01T12:45:31;0;0;
35951;PMS5003;22035;51.406;16.194;2023-02-01T12:48:11;0;0;
35951;PMS5003;22035;51.406;16.194;2023-02-01T12:50:51;0;0;
35951;PMS5003;22035;51.406;16.194;2023-02-01T12:53:21;0;0;
35951;PMS5003;22035;51.406;16.194;2023-02-01T12:55:50;1;1;
35951;PMS5003;22035;51.406;16.194;2023-02-01T12:58:21;0;0;
35951;PMS5003;22035;51.406;16.194;2023-02-01T13:00:52;0;0;
35951;PMS5003;22035;51.406;16.194;2023-02-01T13:03:26;0;0;
35951;PMS5003;22035;51.406;16.194;2023-02-01T13:06:02;0;0;
35951;PMS5003;22035;51.406;16.194;2023-02-01T13:08:34;0;0;
35951;PMS5003;22035;51.406;16.194;2023-02-01T13:11:06;0;0;
35951;PMS5003;22035;51.406;16.194;2023-02-01T13:13:40;2;0;
35951;PMS5003;22035;51.406;16.194;2023-02-01T13:16:14;0;0;
35951;PMS5003;22035;51.406;16.194;2023-02-01T13:18:43;0;0;
35951;PMS5003;22035;51.406;16.194;2023-02-01T13:21:14;0;0;
35951;PMS5003;22035;51.406;16.194;2023-02-01T13:23:45;0;0;
35951;PMS5003;22035;51.406;16.194;2023-02-01T13:26:13;2;0;
35951;PMS5003;22035;51.406;16.194;2023-02-01T13:28:40;0;0;
35951;PMS5003;22035;51.406;16.194;2023-02-01T13:31:18;0;0;
35951;PMS5003;22035;51.406;16.194;2023-02-01T13:33:59;1;1;
35951;PMS5003;22035;51.406;16.194;2023-02-01T13:36:56;1;0;
35951;PMS5003;22035;51.406;16.194;2023-02-01T13:39:52;0;0;
35951;PMS5003;22035;51.406;16.194;2023-02-01T13:42:25;0;0;
35951;PMS5003;22035;51.406;16.194;2023-02-01T13:44:56;1;1;
35951;PMS5003;22035;51.406;16.194;2023-02-01T13:47:26;0;0;
35951;PMS5003;22035;51.406;16.194;2023-02-01T13:49:55;2;0;
35951;PMS5003;22035;51.406;16.194;2023-02-01T13:52:26;0;0;
35951;PMS5003;22035;51.406;16.194;2023-02-01T13:55:03;0;0;
35951;PMS5003;22035;51.406;16.194;2023-02-01T13:57:41;2;1;
35951;PMS5003;22035;51.406;16.194;2023-02-01T14:00:22;2;0;
35951;PMS5003;22035;51.406;16.194;2023-02-01T14:02:50;2;1;
35951;PMS5003;22035;51.406;16.194;2023-02-01T14:06:39;0;0;
35951;PMS5003;22035;51.406;16.194;2023-02-01T14:09:16;0;0;
35951;PMS5003;22035;51.406;16.194;2023-02-01T14:11:55;0;0;
35951;PMS5003;22035;51.406;16.194;2023-02-01T14:14:45;0;0;
35951;PMS5003;22035;51.406;16.194;2023-02-01T14:17:29;2;1;
35951;PMS5003;22035;51.406;16.194;2023-02-01T14:20:36;3;1;
35951;PMS5003;22035;51.406;16.194;2023-02-01T14:23:08;0;0;
35951;PMS5003;22035;51.406;16.194;2023-02-01T14:25:38;2;1;
35951;PMS5003;22035;51.406;16.194;2023-02-01T14:28:09;0;0;
35951;PMS5003;22035;51.406;16.194;2023-02-01T14:30:47;1;1;
35951;PMS5003;22035;51.406;16.194;2023-02-01T14:33:17;3;0;
35951;PMS5003;22035;51.406;16.194;2023-02-01T14:35:53;1;1;
35951;PMS5003;22035;51.406;16.194;2023-02-01T14:38:26;1;0;
35951;PMS5003;22035;51.406;16.194;2023-02-01T14:40:52;2;1;
35951;PMS5003;22035;51.406;16.194;2023-02-01T14:43:19;2;0;
35951;PMS5003;22035;51.406;16.194;2023-02-01T14:46:15;3;1;
35951;PMS5003;22035;51.406;16.194;2023-02-01T14:48:43;1;0;
35951;PMS5003;22035;51.406;16.194;2023-02-01T14:51:11;2;1;
35951;PMS5003;22035;51.406;16.194;2023-02-01T14:53:40;0;0;
35951;PMS5003;22035;51.406;16.194;2023-02-01T14:56:08;1;1;
35951;PMS5003;22035;51.406;16.194;2023-02-01T14:58:39;4;0;
35951;PMS5003;22035;51.406;16.194;2023-02-01T15:01:15;2;2;
35951;PMS5003;22035;51.406;16.194;2023-02-01T15:03:46;0;0;
35951;PMS5003;22035;51.406;16.194;2023-02-01T15:06:21;4;0;
35951;PMS5003;22035;51.406;16.194;2023-02-01T15:08:52;1;0;
35951;PMS5003;22035;51.406;16.194;2023-02-01T15:11:21;0;0;
35951;PMS5003;22035;51.406;16.194;2023-02-01T15:13:48;2;1;
35951;PMS5003;22035;51.406;16.194;2023-02-01T15:16:15;2;0;
35951;PMS5003;22035;51.406;16.194;2023-02-01T15:18:42;1;1;
35951;PMS5003;22035;51.406;16.194;2023-02-01T15:21:14;0;0;
35951;PMS5003;22035;51.406;16.194;2023-02-01T15:23:41;2;0;
35951;PMS5003;22035;51.406;16.194;2023-02-01T15:26:07;0;0;
35951;PMS5003;22035;51.406;16.194;2023-02-01T15:28:33;1;0;
35951;PMS5003;22035;51.406;16.194;2023-02-01T15:31:00;0;0;
35951;PMS5003;22035;51.406;16.194;2023-02-01T15:33:27;0;0;
35951;PMS5003;22035;51.406;16.194;2023-02-01T15:35:54;0;0;
35951;PMS5003;22035;51.406;16.194;2023-02-01T15:38:33;1;1;
35951;PMS5003;22035;51.406;16.194;2023-02-01T15:41:02;0;0;
35951;PMS5003;22035;51.406;16.194;2023-02-01T15:43:31;3;0;
35951;PMS5003;22035;51.406;16.194;2023-02-01T15:45:59;1;0;
35951;PMS5003;22035;51.406;16.194;2023-02-01T15:48:30;1;1;
35951;PMS5003;22035;51.406;16.194;2023-02-01T15:51:00;3;1;
35951;PMS5003;22035;51.406;16.194;2023-02-01T15:53:26;2;2;
35951;PMS5003;22035;51.406;16.194;2023-02-01T15:55:53;1;1;
35951;PMS5003;22035;51.406;16.194;2023-02-01T15:58:22;3;1;
35951;PMS5003;22035;51.406;16.194;2023-02-01T16:00:50;0;0;
35951;PMS5003;22035;51.406;16.194;2023-02-01T16:03:27;1;0;
35951;PMS5003;22035;51.406;16.194;2023-02-01T16:05:59;1;1;
35951;PMS5003;22035;51.406;16.194;2023-02-01T16:08:27;3;1;
35951;PMS5003;22035;51.406;16.194;2023-02-01T16:10:54;0;0;
35951;PMS5003;22035;51.406;16.194;2023-02-01T16:13:26;1;1;
35951;PMS5003;22035;51.406;16.194;2023-02-01T16:15:51;2;1;
35951;PMS5003;22035;51.406;16.194;2023-02-01T16:18:17;0;0;
35951;PMS5003;22035;51.406;16.194;2023-02-01T16:20:43;1;0;
35951;PMS5003;22035;51.406;16.194;2023-02-01T16:23:09;0;0;
35951;PMS5003;22035;51.406;16.194;2023-02-01T16:25:36;2;2;
35951;PMS5003;22035;51.406;16.194;2023-02-01T16:28:02;0;0;
35951;PMS5003;22035;51.406;16.194;2023-02-01T16:30:28;2;0;
35951;PMS5003;22035;51.406;16.194;2023-02-01T16:32:55;4;4;
35951;PMS5003;22035;51.406;16.194;2023-02-01T16:35:23;6;5;
35951;PMS5003;22035;51.406;16.194;2023-02-01T16:37:51;3;3;
35951;PMS5003;22035;51.406;16.194;2023-02-01T16:40:17;5;5;
35951;PMS5003;22035;51.406;16.194;2023-02-01T16:42:45;19;19;
35951;PMS5003;22035;51.406;16.194;2023-02-01T16:45:13;12;12;
35951;PMS5003;22035;51.406;16.194;2023-02-01T16:47:39;12;12;
35951;PMS5003;22035;51.406;16.194;2023-02-01T16:50:14;7;7;